createdAt,value
2019-04-23T00:00:56.753Z,3.57
2019-04-23T00:03:19.426Z,3.30
2019-04-23T00:06:14.675Z,2.97
2019-04-23T00:08:44.818Z,3.33
2019-04-23T00:10:58.486Z,2.87
2019-04-23T00:13:24.141Z,3.60
2019-04-23T00:16:08.920Z,3.20
2019-04-23T00:20:59.341Z,3.17
2019-04-23T00:23:42.448Z,3.10
2019-04-23T00:28:35.416Z,3.20
2019-04-23T00:31:06.827Z,3.47
2019-04-23T00:33:29.574Z,3.10
2019-04-23T00:36:02.643Z,2.97
2019-04-23T00:41:05.612Z,3.00
2019-04-23T00:45:59.717Z,3.20
2019-04-23T00:48:35.279Z,2.93
2019-04-23T00:50:56.192Z,2.87
2019-04-23T00:53:32.876Z,3.10
2019-04-23T00:56:24.964Z,2.90
2019-04-23T00:58:41.189Z,2.87
2019-04-23T01:01:07.681Z,3.20
2019-04-23T01:03:33.904Z,3.10
2019-04-23T01:06:09.617Z,2.67
2019-04-23T01:08:38.824Z,3.30
2019-04-23T01:18:51.443Z,3.23
2019-04-23T01:21:03.463Z,3.40
2019-04-23T01:23:47.162Z,3.10
2019-04-23T01:26:29.596Z,3.73
2019-04-23T01:29:08.434Z,3.67
2019-04-23T01:31:34.853Z,3.20
2019-04-23T01:34:15.077Z,3.50
2019-04-23T01:36:54.626Z,3.10
2019-04-23T01:41:45.378Z,3.73
2019-04-23T01:44:07.410Z,3.20
2019-04-23T01:46:43.870Z,3.13
2019-04-23T01:49:31.198Z,3.00
2019-04-23T01:51:46.652Z,3.30
2019-04-23T01:54:10.908Z,3.20
2019-04-23T01:56:35.188Z,2.97
2019-04-23T01:59:16.155Z,3.10
2019-04-23T02:01:47.459Z,3.13
2019-04-23T02:04:18.888Z,2.93
2019-04-23T02:06:39.200Z,3.20
2019-04-23T02:09:13.823Z,3.30
2019-04-23T02:11:40.340Z,3.10
2019-04-23T02:16:57.918Z,3.57
2019-04-23T02:19:22.153Z,3.53
2019-04-23T02:21:52.768Z,3.50
2019-04-23T02:24:20.970Z,3.40
2019-04-23T02:27:07.384Z,4.00
2019-04-23T02:29:28.412Z,3.90
2019-04-23T02:34:40.963Z,3.40
2019-04-23T02:36:55.003Z,3.20
2019-04-23T02:39:29.123Z,3.27
2019-04-23T02:42:04.800Z,2.77
2019-04-23T02:47:10.357Z,3.30
2019-04-23T02:49:38.177Z,3.77
2019-04-23T03:02:15.595Z,3.73
2019-04-23T03:07:02.899Z,3.43
2019-04-23T03:09:43.309Z,3.70
2019-04-23T03:12:07.873Z,4.03
2019-04-23T03:14:33.114Z,3.70
2019-04-23T03:19:38.374Z,3.40
2019-04-23T03:22:09.574Z,3.97
2019-04-23T03:27:22.838Z,4.03
2019-04-23T03:40:01.839Z,4.47
2019-04-23T03:42:29.754Z,4.40
2019-04-23T03:45:17.071Z,4.93
2019-04-23T03:50:08.749Z,4.77
2019-04-23T03:55:05.735Z,4.80
2019-04-23T04:00:03.463Z,4.87
2019-04-23T04:02:39.788Z,4.87
2019-04-23T04:05:06.061Z,5.00
2019-04-23T04:07:44.902Z,4.83
2019-04-23T04:09:51.717Z,4.83
2019-04-23T04:12:35.301Z,5.10
2019-04-23T04:22:39.210Z,4.67
2019-04-23T04:25:01.626Z,5.03
2019-04-23T04:27:43.447Z,5.60
2019-04-23T04:30:00.881Z,5.80
2019-04-23T04:32:33.453Z,4.87
2019-04-23T04:35:20.942Z,5.67
2019-04-23T04:42:58.572Z,5.80
2019-04-23T04:47:35.488Z,5.97
2019-04-23T04:50:01.415Z,5.90
2019-04-23T04:52:44.292Z,5.10
2019-04-23T04:55:03.233Z,5.37
2019-04-23T04:57:37.233Z,4.90
2019-04-23T05:00:21.575Z,5.93
2019-04-23T05:05:29.003Z,5.70
2019-04-23T05:07:38.178Z,6.23
2019-04-23T05:12:27.642Z,5.77
2019-04-23T05:17:55.144Z,5.50
2019-04-23T05:20:13.185Z,4.83
2019-04-23T05:22:51.041Z,5.43
2019-04-23T05:25:05.484Z,5.67
2019-04-23T05:27:47.204Z,5.90
2019-04-23T05:30:15.631Z,5.37
2019-04-23T05:32:45.163Z,5.83
2019-04-23T05:35:09.863Z,5.63
2019-04-23T05:37:50.585Z,5.80
2019-04-23T05:40:25.374Z,5.80
2019-04-23T05:42:53.223Z,5.47
2019-04-23T05:45:08.362Z,5.23
2019-04-23T05:47:47.053Z,5.97
2019-04-23T05:50:21.633Z,5.43
2019-04-23T05:52:45.924Z,7.10
2019-04-23T05:55:16.995Z,5.80
2019-04-23T05:57:42.684Z,5.93
2019-04-23T06:00:15.846Z,6.13
2019-04-23T06:02:51.710Z,6.03
2019-04-23T06:05:19.193Z,5.30
2019-04-23T06:10:23.415Z,5.93
2019-04-23T06:12:45.333Z,5.67
2019-04-23T06:15:23.821Z,5.70
2019-04-23T06:17:47.454Z,5.90
2019-04-23T06:20:18.155Z,6.10
2019-04-23T06:22:49.554Z,5.70
2019-04-23T06:25:35.757Z,5.67
2019-04-23T06:27:45.955Z,6.40
2019-04-23T06:30:17.977Z,6.60
2019-04-23T06:32:42.902Z,6.10
2019-04-23T06:35:16.031Z,5.70
2019-04-23T06:38:26.176Z,5.77
2019-04-23T06:40:21.594Z,5.70
2019-04-23T06:42:56.325Z,6.00
2019-04-23T06:45:14.803Z,5.97
2019-04-23T06:47:55.457Z,5.70
2019-04-23T06:50:19.534Z,5.40
2019-04-23T06:52:50.157Z,5.57
2019-04-23T06:57:58.813Z,6.63
2019-04-23T07:00:27.493Z,5.63
2019-04-23T07:02:54.227Z,5.90
2019-04-23T07:05:37.690Z,5.57
2019-04-23T07:07:59.709Z,5.73
2019-04-23T07:10:30.145Z,6.27
2019-04-23T07:12:57.723Z,6.43
2019-04-23T07:17:55.431Z,6.00
2019-04-23T07:20:31.688Z,5.73
2019-04-23T07:23:14.166Z,6.63
2019-04-23T07:25:25.247Z,6.00
2019-04-23T07:27:59.427Z,6.03
2019-04-23T07:30:31.608Z,6.43
2019-04-23T07:33:00.087Z,5.93
2019-04-23T07:35:30.479Z,6.13
2019-04-23T07:38:08.832Z,7.50
2019-04-23T07:40:31.243Z,5.70
2019-04-23T07:43:15.545Z,5.70
2019-04-23T07:45:53.346Z,5.90
2019-04-23T07:48:22.280Z,5.43
2019-04-23T07:50:55.029Z,5.10
2019-04-23T08:00:57.072Z,5.33
2019-04-23T08:03:33.060Z,5.37
2019-04-23T08:05:55.861Z,5.30
2019-04-23T08:08:43.857Z,5.30
2019-04-23T08:16:25.822Z,5.87
2019-04-23T08:18:45.169Z,6.30
2019-04-23T08:23:49.073Z,5.60
2019-04-23T08:26:31.545Z,5.60
2019-04-23T08:28:59.573Z,4.57
2019-04-23T08:31:28.351Z,5.37
2019-04-23T08:33:57.492Z,6.30
2019-04-23T08:36:21.728Z,5.43
2019-04-23T08:38:51.071Z,8.90
2019-04-23T08:41:31.709Z,5.57
2019-04-23T08:46:37.499Z,5.53
2019-04-23T08:49:05.031Z,5.50
2019-04-23T08:51:44.221Z,5.67
2019-04-23T08:54:09.138Z,5.70
2019-04-23T08:56:32.216Z,5.57
2019-04-23T08:59:01.770Z,5.07
2019-04-23T09:01:33.007Z,5.40
2019-04-23T09:04:01.966Z,5.60
2019-04-23T09:06:29.857Z,6.40
2019-04-23T09:08:56.530Z,5.80
2019-04-23T09:11:41.666Z,5.43
2019-04-23T09:14:04.693Z,5.73
2019-04-23T09:19:12.691Z,5.87
2019-04-23T09:21:41.863Z,5.10
2019-04-23T09:24:00.424Z,5.37
2019-04-23T09:26:35.316Z,5.53
2019-04-23T09:29:21.583Z,5.37
2019-04-23T09:34:42.950Z,6.90
2019-04-23T09:37:19.447Z,5.47
2019-04-23T09:39:59.553Z,6.00
2019-04-23T09:42:38.819Z,6.73
2019-04-23T09:45:33.870Z,5.33
2019-04-23T09:47:58.492Z,5.90
2019-04-23T09:53:06.340Z,5.73
2019-04-23T09:55:28.235Z,6.47
2019-04-23T09:57:55.469Z,5.50
2019-04-23T10:00:31.424Z,5.67
2019-04-23T10:02:45.712Z,8.00
2019-04-23T10:05:11.174Z,5.97
2019-04-23T10:07:40.593Z,5.70
2019-04-23T10:09:59.627Z,6.20
2019-04-23T10:12:28.258Z,5.67
2019-04-23T10:15:07.246Z,6.33
2019-04-23T10:17:28.480Z,6.00
2019-04-23T10:19:58.277Z,6.23
2019-04-23T10:22:27.275Z,5.30
2019-04-23T10:24:57.175Z,5.90
2019-04-23T10:27:27.233Z,5.63
2019-04-23T10:29:56.230Z,5.80
2019-04-23T10:32:25.463Z,6.47
2019-04-23T10:35:06.826Z,5.80
2019-04-23T10:37:32.893Z,6.23
2019-04-23T10:39:59.215Z,6.37
2019-04-23T10:42:25.414Z,5.50
2019-04-23T10:45:27.414Z,5.07
2019-04-23T10:48:32.770Z,6.23
2019-04-23T10:50:59.427Z,5.67
2019-04-23T10:58:35.306Z,5.40
2019-04-23T11:01:05.811Z,5.80
2019-04-23T11:03:52.154Z,6.00
2019-04-23T11:06:17.601Z,5.43
2019-04-23T11:08:36.811Z,5.67
2019-04-23T11:11:16.604Z,5.77
2019-04-23T11:13:38.379Z,5.87
2019-04-23T11:16:47.283Z,5.57
2019-04-23T11:18:53.963Z,6.03
2019-04-23T11:21:17.969Z,5.87
2019-04-23T11:23:43.062Z,6.10
2019-04-23T11:26:20.030Z,6.40
2019-04-23T11:28:38.240Z,5.70
2019-04-23T11:31:26.117Z,5.53
2019-04-23T11:33:46.370Z,5.80
2019-04-23T11:38:56.163Z,5.90
2019-04-23T11:41:22.599Z,5.43
2019-04-23T11:43:39.536Z,6.10
2019-04-23T11:49:09.574Z,5.93
2019-04-23T11:56:44.781Z,5.43
2019-04-23T11:58:45.749Z,5.13
2019-04-23T12:04:05.173Z,5.87
2019-04-23T12:06:50.986Z,6.07
2019-04-23T12:09:14.526Z,6.00
2019-04-23T12:14:21.890Z,5.90
2019-04-23T12:17:03.950Z,5.53
2019-04-23T12:19:44.276Z,5.57
2019-04-23T12:21:44.699Z,5.50
2019-04-23T12:24:37.916Z,5.57
2019-04-23T12:29:23.351Z,5.70
2019-04-23T12:32:15.093Z,6.23
2019-04-23T12:34:39.560Z,6.10
2019-04-23T12:37:04.167Z,6.63
2019-04-23T12:39:41.532Z,6.03
2019-04-23T12:42:37.348Z,5.50
2019-04-23T12:44:45.856Z,5.70
2019-04-23T12:47:27.531Z,5.90
2019-04-23T12:54:55.987Z,6.07
2019-04-23T12:59:44.355Z,5.50
2019-04-23T13:07:19.572Z,5.90
2019-04-23T13:12:20.605Z,6.20
2019-04-23T13:14:49.537Z,6.60
2019-04-23T13:17:33.062Z,5.83
2019-04-23T13:20:04.136Z,5.60
2019-04-23T13:24:48.484Z,6.00
2019-04-23T13:29:56.585Z,5.67
2019-04-23T13:32:20.507Z,6.90
2019-04-23T13:35:02.916Z,5.67
2019-04-23T13:37:31.511Z,6.50
2019-04-23T13:39:51.526Z,5.57
2019-04-23T13:42:33.675Z,5.53
2019-04-23T13:44:59.893Z,5.90
2019-04-23T13:47:40.917Z,6.10
2019-04-23T13:49:57.303Z,5.20
2019-04-23T13:52:48.013Z,5.80
2019-04-23T14:00:09.511Z,5.50
2019-04-23T14:02:31.131Z,5.80
2019-04-23T14:04:58.549Z,5.43
2019-04-23T14:07:34.303Z,6.53
2019-04-23T14:12:31.917Z,6.87
2019-04-23T14:15:06.403Z,7.07
2019-04-23T14:17:46.665Z,7.50
2019-04-23T14:20:05.468Z,5.83
2019-04-23T14:22:51.143Z,5.57
2019-04-23T14:27:37.134Z,5.77
2019-04-23T14:35:10.855Z,6.10
2019-04-23T14:37:29.408Z,5.90
2019-04-23T14:40:06.116Z,6.37
2019-04-23T14:42:47.259Z,6.10
2019-04-23T14:45:19.153Z,5.63
2019-04-23T14:47:39.054Z,5.30
2019-04-23T14:50:27.887Z,5.80
2019-04-23T14:52:52.478Z,5.40
2019-04-23T15:02:51.889Z,5.97
2019-04-23T15:07:53.996Z,6.37
2019-04-23T15:12:54.014Z,5.87
2019-04-23T15:15:19.337Z,6.00
2019-04-23T15:17:50.640Z,5.97
2019-04-23T15:20:30.630Z,6.27
2019-04-23T15:23:14.396Z,5.90
2019-04-23T15:25:40.185Z,6.23
2019-04-23T15:28:07.402Z,5.80
2019-04-23T15:30:21.737Z,6.10
2019-04-23T15:36:02.298Z,6.33
2019-04-23T15:40:26.991Z,6.03
2019-04-23T15:43:02.706Z,5.70
2019-04-23T15:45:30.708Z,5.83
2019-04-23T15:48:05.005Z,7.07
2019-04-23T15:53:01.335Z,5.67
2019-04-23T15:55:28.162Z,5.70
2019-04-23T15:58:09.311Z,6.27
2019-04-23T16:00:30.898Z,6.17
2019-04-23T16:02:32.912Z,6.80
2019-04-23T16:05:01.354Z,5.97
2019-04-23T16:07:51.562Z,6.10
2019-04-23T16:10:28.403Z,6.20
2019-04-23T16:13:06.059Z,6.47
2019-04-23T16:15:25.570Z,5.93
2019-04-23T16:18:13.889Z,6.20
2019-04-23T16:20:50.281Z,5.73
2019-04-23T16:23:07.743Z,5.70
2019-04-23T16:25:38.423Z,6.43
2019-04-23T16:28:12.910Z,6.43
2019-04-23T16:30:39.826Z,6.87
2019-04-23T16:33:11.076Z,6.07
2019-04-23T16:35:51.574Z,6.00
2019-04-23T16:40:47.632Z,6.43
2019-04-23T16:45:56.822Z,6.10
2019-04-23T16:48:40.701Z,5.80
2019-04-23T16:51:11.865Z,6.87
2019-04-23T16:53:21.451Z,6.93
2019-04-23T16:55:55.081Z,7.30
2019-04-23T16:58:25.324Z,7.40
2019-04-23T17:01:02.587Z,6.30
2019-04-23T17:03:26.181Z,6.53
2019-04-23T17:05:57.869Z,6.60
2019-04-23T17:08:45.329Z,6.53
2019-04-23T17:13:24.185Z,6.67
2019-04-23T17:16:04.436Z,6.60
2019-04-23T17:18:24.807Z,6.57
2019-04-23T17:23:31.704Z,7.40
2019-04-23T17:25:58.167Z,7.03
2019-04-23T17:28:35.859Z,6.67
2019-04-23T17:31:03.465Z,6.97
2019-04-23T17:33:43.764Z,6.33
2019-04-23T17:36:15.143Z,6.60
2019-04-23T17:38:43.516Z,6.43
2019-04-23T17:41:15.612Z,7.00
2019-04-23T17:43:39.622Z,5.80
2019-04-23T17:46:14.822Z,6.13
2019-04-23T17:48:34.492Z,6.57
2019-04-23T17:51:16.571Z,6.07
2019-04-23T17:54:04.729Z,6.60
2019-04-23T17:58:43.741Z,6.60
2019-04-23T18:06:28.281Z,6.67
2019-04-23T18:09:05.942Z,6.67
2019-04-23T18:11:29.894Z,6.50
2019-04-23T18:13:50.528Z,7.23
2019-04-23T18:16:32.076Z,8.13
2019-04-23T18:19:10.323Z,7.80
2019-04-23T18:21:36.043Z,8.87
2019-04-23T18:24:13.333Z,8.37
2019-04-23T18:26:40.970Z,8.97
2019-04-23T18:29:19.225Z,9.10
2019-04-23T18:31:38.631Z,9.27
2019-04-23T18:34:12.611Z,9.63
2019-04-23T18:36:43.064Z,8.83
2019-04-23T18:39:12.090Z,8.77
2019-04-23T18:41:46.504Z,8.83
2019-04-23T18:44:24.964Z,8.10
2019-04-23T18:46:43.802Z,7.43
2019-04-23T18:49:28.207Z,7.30
2019-04-23T18:51:52.124Z,7.10
2019-04-23T18:54:19.943Z,7.93
2019-04-23T18:56:59.668Z,7.83
2019-04-23T18:59:30.519Z,8.07
2019-04-23T19:01:48.106Z,7.73
2019-04-23T19:06:40.000Z,8.40
